Time;durP1;ratioP1;P1;durP2;ratioP2;P2;SDS_P1;SDS_P2;PMS_P1;PMS_P2;Temp;Humidity;BMP_temperature;BMP_pressure;BME280_temperature;BME280_humidity;BME280_pressure;Samples;Min_cycle;Max_cycle;Signal;HPM_P1;HPM_P2
2023/01/14 00:00:27;;;;;;;;;;;;;;;4.91;70.44;94909.72;4176626;28;20282;-74
2023/01/14 00:02:28;;;;;;;;;;;;;;;4.95;71.09;94902.50;4162645;28;20017;-74
2023/01/14 00:04:30;;;;;;;;;;;;;;;4.97;71.47;94898.88;4185411;28;19920;-76
2023/01/14 00:06:35;;;;;;;;;;;;;;;5.03;71.32;94906.16;4175309;28;20003;-73
2023/01/14 00:08:37;;;;;;;;;;;;;;;5.07;71.07;94906.75;4175746;28;20288;-76
2023/01/14 00:10:38;;;;;;;;;;;;;;;5.16;71.33;94908.63;4154187;28;19948;-76
2023/01/14 00:12:40;;;;;;;;;;;;;;;5.21;70.87;94913.47;4167604;28;19920;-73
2023/01/14 00:14:41;;;;;;;;;;;;;;;5.18;70.73;94911.91;4178150;28;19920;-71
2023/01/14 00:16:44;;;;;;;;;;;;;;;5.15;71.19;94901.78;4166959;28;20327;-76
2023/01/14 00:18:45;;;;;;;;;;;;;;;5.15;70.73;94904.38;4177428;28;19937;-73
2023/01/14 00:20:56;;;;;;;;;;;;;;;5.17;70.86;94902.50;4171873;28;19975;-71
2023/01/14 00:22:58;;;;;;;;;;;;;;;5.21;71.17;94897.91;4171760;28;19983;-73
2023/01/14 00:25:00;;;;;;;;;;;;;;;5.25;71.22;94892.31;4177313;28;19921;-74
2023/01/14 00:27:01;;;;;;;;;;;;;;;5.31;71.58;94891.84;4176712;28;20377;-74
2023/01/14 00:29:03;;;;;;;;;;;;;;;5.36;71.25;94895.84;4176650;28;19924;-73
2023/01/14 00:31:09;;;;;;;;;;;;;;;5.38;71.80;94899.97;4172896;28;19925;-73
2023/01/14 00:33:10;;;;;;;;;;;;;;;5.40;71.70;94886.84;4180279;28;19947;-72
2023/01/14 00:35:12;;;;;;;;;;;;;;;5.44;71.25;94886.50;4183094;28;20311;-71
2023/01/14 00:37:14;;;;;;;;;;;;;;;5.47;70.77;94888.84;4164915;28;19928;-74
2023/01/14 00:39:16;;;;;;;;;;;;;;;5.49;71.55;94893.91;4164365;28;19987;-73
2023/01/14 00:41:21;;;;;;;;;;;;;;;5.49;71.05;94897.34;4175003;28;19920;-72
2023/01/14 00:43:23;;;;;;;;;;;;;;;5.46;71.10;94894.16;4159745;28;19928;-74
2023/01/14 00:45:24;;;;;;;;;;;;;;;5.41;71.89;94893.69;4160810;28;20365;-74
2023/01/14 00:47:26;;;;;;;;;;;;;;;5.31;72.31;94894.44;4181276;28;19928;-74
2023/01/14 00:49:27;;;;;;;;;;;;;;;5.19;72.62;94900.59;4173111;28;20327;-70
2023/01/14 00:51:29;;;;;;;;;;;;;;;5.16;73.18;94900.00;4180289;28;19921;-73
2023/01/14 00:53:31;;;;;;;;;;;;;;;5.20;72.85;94896.22;4167495;28;19920;-73
2023/01/14 00:55:33;;;;;;;;;;;;;;;5.18;73.18;94888.53;4165846;28;19929;-72
2023/01/14 00:57:35;;;;;;;;;;;;;;;5.16;73.02;94895.63;4172523;28;20155;-71
2023/01/14 00:59:37;;;;;;;;;;;;;;;5.14;72.59;94900.13;4178914;28;20023;-71
2023/01/14 01:01:38;;;;;;;;;;;;;;;5.08;73.00;94898.84;4165724;28;19925;-71
2023/01/14 01:03:41;;;;;;;;;;;;;;;5.04;72.81;94896.63;4178485;28;19986;-71
2023/01/14 01:05:44;;;;;;;;;;;;;;;5.02;73.30;94895.91;4160932;28;20003;-72
2023/01/14 01:07:46;;;;;;;;;;;;;;;5.09;73.82;94900.50;4177205;28;20360;-71
2023/01/14 01:09:49;;;;;;;;;;;;;;;4.88;73.03;94897.81;4165106;28;19932;-73
2023/01/14 01:11:50;;;;;;;;;;;;;;;4.86;72.85;94897.13;4166824;28;20008;-71
2023/01/14 01:13:53;;;;;;;;;;;;;;;4.51;73.28;94905.81;4144695;28;19941;-71
2023/01/14 01:15:58;;;;;;;;;;;;;;;4.47;73.80;94901.84;4169256;28;19990;-70
2023/01/14 01:17:59;;;;;;;;;;;;;;;4.45;73.71;94900.28;4178813;28;20007;-71
2023/01/14 01:20:01;;;;;;;;;;;;;;;4.47;74.12;94899.25;4177895;28;19920;-72
2023/01/14 01:22:03;;;;;;;;;;;;;;;4.54;74.70;94898.75;4161841;28;19929;-71
2023/01/14 01:24:04;;;;;;;;;;;;;;;4.64;74.32;94897.09;4162210;28;20138;-70
2023/01/14 01:26:07;;;;;;;;;;;;;;;4.71;73.99;94891.34;4161910;28;19975;-70
2023/01/14 01:28:09;;;;;;;;;;;;;;;4.46;74.39;94887.19;4162299;28;19925;-73
2023/01/14 01:30:11;;;;;;;;;;;;;;;4.10;75.53;94894.22;4176927;28;19950;-70
2023/01/14 01:32:12;;;;;;;;;;;;;;;3.99;75.88;94890.78;4178443;28;20336;-71
2023/01/14 01:34:14;;;;;;;;;;;;;;;4.11;75.76;94887.28;4178514;28;20364;-72
2023/01/14 01:36:15;;;;;;;;;;;;;;;4.20;75.10;94885.78;4177997;28;19986;-73
2023/01/14 01:38:17;;;;;;;;;;;;;;;4.24;74.78;94882.00;4177432;28;19999;-70
2023/01/14 01:40:19;;;;;;;;;;;;;;;4.36;74.89;94878.47;4177748;28;19983;-71
2023/01/14 01:42:22;;;;;;;;;;;;;;;4.51;74.46;94869.50;4168913;28;19921;-70
2023/01/14 01:44:23;;;;;;;;;;;;;;;4.64;73.17;94873.75;4145024;28;19933;-72
2023/01/14 01:46:25;;;;;;;;;;;;;;;4.73;73.13;94870.44;4174527;28;19978;-73
2023/01/14 01:48:32;;;;;;;;;;;;;;;4.77;72.60;94874.44;4168779;28;19963;-72
2023/01/14 01:50:33;;;;;;;;;;;;;;;4.84;72.34;94870.44;4160202;28;19983;-74
2023/01/14 01:52:35;;;;;;;;;;;;;;;4.87;72.71;94867.59;4158825;28;20288;-72
2023/01/14 01:54:38;;;;;;;;;;;;;;;4.85;72.19;94863.47;4177374;28;19931;-72
2023/01/14 01:56:39;;;;;;;;;;;;;;;4.83;72.44;94861.00;4177737;28;20003;-74
2023/01/14 01:58:41;;;;;;;;;;;;;;;4.86;71.88;94862.53;4144363;28;19921;-72
2023/01/14 02:00:43;;;;;;;;;;;;;;;4.95;72.19;94860.97;4159724;28;20418;-72
2023/01/14 02:02:44;;;;;;;;;;;;;;;4.99;71.90;94867.56;4177495;28;20331;-72
2023/01/14 02:04:46;;;;;;;;;;;;;;;5.03;71.69;94863.78;4160070;28;20268;-71
2023/01/14 02:06:47;;;;;;;;;;;;;;;5.04;71.21;94861.09;4176854;28;19967;-72
2023/01/14 02:08:50;;;;;;;;;;;;;;;5.05;71.03;94867.09;4175856;28;20082;-71
2023/01/14 02:11:08;;;;;;;;;;;;;;;5.01;71.57;94865.69;4176407;28;20301;-71
2023/01/14 02:13:09;;;;;;;;;;;;;;;5.02;71.20;94862.16;4163306;28;19959;-70
2023/01/14 02:15:14;;;;;;;;;;;;;;;5.02;70.96;94862.97;4174730;28;19936;-72
2023/01/14 02:17:18;;;;;;;;;;;;;;;5.02;71.18;94872.53;4177815;28;20011;-72
2023/01/14 02:19:46;;;;;;;;;;;;;;;5.06;71.45;94869.59;4178267;28;19928;-74
2023/01/14 02:21:59;;;;;;;;;;;;;;;5.06;70.83;94868.75;4159299;28;20204;-72
2023/01/14 02:24:13;;;;;;;;;;;;;;;5.01;71.05;94865.69;4176887;28;19978;-73
2023/01/14 02:26:33;;;;;;;;;;;;;;;5.04;70.95;94865.47;4176092;28;19924;-73
2023/01/14 02:28:35;;;;;;;;;;;;;;;5.03;70.88;94863.78;4166767;28;19948;-73
2023/01/14 02:30:44;;;;;;;;;;;;;;;5.05;70.92;94859.31;4175638;28;19928;-72
2023/01/14 02:32:52;;;;;;;;;;;;;;;5.05;70.44;94861.91;4157975;28;19920;-73
2023/01/14 02:35:00;;;;;;;;;;;;;;;5.04;70.74;94861.09;4152081;28;19924;-72
2023/01/14 02:37:20;;;;;;;;;;;;;;;5.02;70.25;94855.19;4176030;28;19982;-73
2023/01/14 02:39:22;;;;;;;;;;;;;;;5.04;70.50;94868.88;4176753;28;19932;-73
2023/01/14 02:44:10;;;;;;;;;;;;;;;5.03;69.93;94859.41;4164672;28;20412;-71
2023/01/14 02:46:29;;;;;;;;;;;;;;;5.00;69.89;94864.06;4159386;28;19952;-72
2023/01/14 02:48:31;;;;;;;;;;;;;;;5.03;69.58;94863.78;4158352;28;19921;-71
2023/01/14 02:50:33;;;;;;;;;;;;;;;5.07;69.92;94865.22;4145742;28;20071;-71
2023/01/14 02:52:34;;;;;;;;;;;;;;;5.08;69.91;94867.69;4153624;28;19926;-72
2023/01/14 02:54:36;;;;;;;;;;;;;;;5.09;70.08;94861.53;4168850;28;19924;-71
2023/01/14 02:56:37;;;;;;;;;;;;;;;5.10;69.56;94863.19;4177454;28;20411;-72
2023/01/14 02:58:45;;;;;;;;;;;;;;;5.13;70.04;94864.72;4161746;28;19931;-72
2023/01/14 03:01:06;;;;;;;;;;;;;;;5.17;70.06;94860.94;4150158;28;20004;-72
2023/01/14 03:03:34;;;;;;;;;;;;;;;5.17;69.50;94862.72;4177032;28;19921;-71
2023/01/14 03:05:44;;;;;;;;;;;;;;;5.17;69.59;94866.13;4162719;28;19928;-73
2023/01/14 03:07:50;;;;;;;;;;;;;;;5.17;69.28;94860.13;4152843;28;19921;-71
2023/01/14 03:10:01;;;;;;;;;;;;;;;5.16;69.40;94861.06;4157714;28;20296;-71
2023/01/14 03:12:12;;;;;;;;;;;;;;;5.16;68.98;94863.66;4154579;28;19921;-72
2023/01/14 03:14:28;;;;;;;;;;;;;;;5.10;69.86;94876.19;4153442;28;20301;-71
2023/01/14 03:16:39;;;;;;;;;;;;;;;5.13;69.97;94880.31;4155610;28;19925;-70
2023/01/14 03:18:40;;;;;;;;;;;;;;;5.10;70.07;94871.00;4175083;28;19978;-73
2023/01/14 03:20:43;;;;;;;;;;;;;;;5.11;70.13;94861.44;4177095;28;20035;-71
2023/01/14 03:22:45;;;;;;;;;;;;;;;5.05;70.13;94856.72;4156283;28;20148;-71
2023/01/14 03:24:47;;;;;;;;;;;;;;;4.97;70.30;94852.16;4156482;28;19944;-71
2023/01/14 03:26:48;;;;;;;;;;;;;;;4.98;69.97;94845.16;4159193;28;19921;-72
2023/01/14 03:28:50;;;;;;;;;;;;;;;4.98;69.76;94851.19;4175320;28;20368;-72
2023/01/14 03:30:54;;;;;;;;;;;;;;;5.05;69.64;94851.53;4157580;28;19931;-72
2023/01/14 03:32:57;;;;;;;;;;;;;;;5.08;69.96;94849.50;4176606;28;19921;-73
2023/01/14 03:35:02;;;;;;;;;;;;;;;4.96;69.65;94853.06;4157140;28;20433;-72
2023/01/14 03:37:04;;;;;;;;;;;;;;;4.90;70.04;94849.22;4173153;28;19921;-72
2023/01/14 03:39:13;;;;;;;;;;;;;;;4.88;69.62;94851.09;4157418;28;20067;-72
2023/01/14 03:42:17;;;;;;;;;;;;;;;4.88;69.68;94845.91;4165980;28;20020;-73
2023/01/14 03:43:39;;;;;;;;;;;;;;;4.94;70.31;94847.19;4161536;28;20392;-71
2023/01/14 03:45:41;;;;;;;;;;;;;;;5.00;69.58;94845.88;4158830;28;19996;-72
2023/01/14 03:47:42;;;;;;;;;;;;;;;5.01;69.57;94845.75;4155452;28;19925;-72
2023/01/14 03:49:44;;;;;;;;;;;;;;;5.03;69.79;94850.81;4155428;28;20016;-72
2023/01/14 03:52:15;;;;;;;;;;;;;;;4.97;69.81;94839.16;4173063;28;19960;-72
2023/01/14 03:54:21;;;;;;;;;;;;;;;4.91;70.07;94855.22;4156821;28;19928;-73
2023/01/14 03:56:25;;;;;;;;;;;;;;;4.90;70.38;94849.22;4175992;28;19921;-71
2023/01/14 03:58:43;;;;;;;;;;;;;;;4.95;69.67;94848.00;4155469;28;19921;-71
2023/01/14 04:00:55;;;;;;;;;;;;;;;4.91;69.98;94845.66;4155318;28;20015;-71
2023/01/14 04:02:56;;;;;;;;;;;;;;;4.97;70.00;94843.50;4149738;28;19920;-71
2023/01/14 04:04:58;;;;;;;;;;;;;;;4.99;70.06;94841.63;4155084;28;20052;-72
2023/01/14 04:07:01;;;;;;;;;;;;;;;5.02;69.38;94836.19;4154341;28;19944;-74
2023/01/14 04:09:06;;;;;;;;;;;;;;;5.00;69.73;94836.31;4156981;28;19941;-72
2023/01/14 04:11:10;;;;;;;;;;;;;;;4.98;69.45;94837.38;4159721;28;19928;-71
2023/01/14 04:15:32;;;;;;;;;;;;;;;4.87;70.13;94833.03;4158255;28;20056;-71
2023/01/14 04:17:37;;;;;;;;;;;;;;;4.86;69.77;94831.38;4159378;28;19932;-72
2023/01/14 04:19:39;;;;;;;;;;;;;;;4.84;70.46;94833.25;4160331;28;19974;-73
2023/01/14 04:21:40;;;;;;;;;;;;;;;4.85;70.40;94835.75;4141413;28;19929;-71
2023/01/14 04:23:42;;;;;;;;;;;;;;;4.86;70.81;94837.41;4152755;28;19961;-72
2023/01/14 04:25:43;;;;;;;;;;;;;;;4.93;71.06;94837.75;4146488;28;20033;-71
2023/01/14 04:27:45;;;;;;;;;;;;;;;4.93;71.09;94833.38;4147864;28;19925;-71
2023/01/14 04:29:47;;;;;;;;;;;;;;;4.94;70.42;94834.19;4154655;28;20060;-71
2023/01/14 04:31:48;;;;;;;;;;;;;;;4.92;69.59;94831.72;4153789;28;20400;-71
2023/01/14 04:33:50;;;;;;;;;;;;;;;4.60;69.85;94833.41;4147911;28;19951;-71
2023/01/14 04:35:51;;;;;;;;;;;;;;;4.22;70.93;94839.81;4158159;28;19921;-71
2023/01/14 04:37:54;;;;;;;;;;;;;;;4.10;72.30;94841.56;4153136;28;19926;-72
2023/01/14 04:39:55;;;;;;;;;;;;;;;4.15;72.93;94833.41;4155628;28;19967;-72
2023/01/14 04:44:17;;;;;;;;;;;;;;;4.34;71.86;94833.66;4150851;28;19925;-72
2023/01/14 04:46:18;;;;;;;;;;;;;;;4.46;72.29;94829.31;4143751;28;19964;-72
2023/01/14 04:48:21;;;;;;;;;;;;;;;4.50;71.43;94839.34;4146466;28;19921;-72
2023/01/14 04:50:31;;;;;;;;;;;;;;;4.54;71.48;94833.88;4152928;28;19936;-73
2023/01/14 04:52:33;;;;;;;;;;;;;;;4.65;71.19;94831.31;4158839;28;19921;-71
2023/01/14 04:54:34;;;;;;;;;;;;;;;4.70;70.70;94827.38;4158030;28;19921;-72
2023/01/14 04:56:35;;;;;;;;;;;;;;;4.72;70.40;94835.88;4149567;28;19970;-72
2023/01/14 04:58:37;;;;;;;;;;;;;;;4.74;70.41;94840.97;4158482;28;20123;-72
2023/01/14 05:00:39;;;;;;;;;;;;;;;4.79;70.63;94835.41;4159316;28;19967;-72
2023/01/14 05:02:41;;;;;;;;;;;;;;;4.82;70.35;94838.59;4157733;28;19959;-73
2023/01/14 05:04:42;;;;;;;;;;;;;;;4.85;70.71;94834.94;4157521;28;19983;-75
2023/01/14 05:06:44;;;;;;;;;;;;;;;4.89;70.66;94844.94;4174687;28;19928;-71
2023/01/14 05:08:47;;;;;;;;;;;;;;;4.87;69.88;94841.66;4147352;28;20071;-69
2023/01/14 05:10:49;;;;;;;;;;;;;;;4.87;70.01;94839.06;4175639;28;19990;-73
2023/01/14 05:12:56;;;;;;;;;;;;;;;4.90;70.59;94843.16;4175708;28;19997;-71
2023/01/14 05:14:58;;;;;;;;;;;;;;;4.82;70.41;94832.56;4175033;28;19925;-71
2023/01/14 05:17:00;;;;;;;;;;;;;;;4.76;70.72;94830.47;4175312;28;19939;-73
2023/01/14 05:19:01;;;;;;;;;;;;;;;4.72;70.42;94838.47;4158111;28;20000;-72
2023/01/14 05:21:04;;;;;;;;;;;;;;;4.74;70.88;94840.97;4176256;28;19927;-72
2023/01/14 05:23:09;;;;;;;;;;;;;;;4.67;70.55;94838.03;4178671;28;19936;-73
2023/01/14 05:25:13;;;;;;;;;;;;;;;4.64;70.35;94843.44;4160262;28;19921;-72
2023/01/14 05:27:14;;;;;;;;;;;;;;;4.65;71.13;94844.28;4160930;28;20007;-72
2023/01/14 05:29:16;;;;;;;;;;;;;;;4.66;70.36;94841.56;4162327;28;19924;-72
2023/01/14 05:31:17;;;;;;;;;;;;;;;4.65;70.58;94844.28;4162700;28;19931;-72
2023/01/14 05:33:19;;;;;;;;;;;;;;;4.59;71.11;94839.56;4163095;28;20151;-73
2023/01/14 05:35:21;;;;;;;;;;;;;;;4.51;70.54;94848.75;4173757;28;20015;-72
2023/01/14 05:37:22;;;;;;;;;;;;;;;4.32;71.12;94848.50;4165273;28;20312;-72
2023/01/14 05:39:24;;;;;;;;;;;;;;;4.12;71.38;94852.63;4177730;28;19920;-72
2023/01/14 05:41:25;;;;;;;;;;;;;;;4.08;72.02;94862.41;4178777;28;19921;-72
2023/01/14 05:45:51;;;;;;;;;;;;;;;4.23;72.56;94859.59;4170527;28;20345;-73
2023/01/14 05:47:53;;;;;;;;;;;;;;;4.30;71.88;94853.84;4159546;28;19931;-74
2023/01/14 05:49:54;;;;;;;;;;;;;;;4.34;71.70;94857.00;4162860;28;19939;-72
2023/01/14 05:51:56;;;;;;;;;;;;;;;4.33;70.92;94860.56;4162345;28;19987;-76
2023/01/14 05:53:57;;;;;;;;;;;;;;;4.29;71.65;94856.53;4161632;28;19921;-71
2023/01/14 05:55:59;;;;;;;;;;;;;;;4.28;71.26;94865.25;4161310;28;19929;-71
2023/01/14 05:58:01;;;;;;;;;;;;;;;4.24;71.80;94863.84;4173850;28;19921;-74
2023/01/14 06:00:06;;;;;;;;;;;;;;;4.24;71.92;94863.84;4162225;28;20367;-73
2023/01/14 06:06:51;;;;;;;;;;;;;;;4.53;70.96;94851.22;4170162;28;20407;-73
2023/01/14 06:08:53;;;;;;;;;;;;;;;4.58;70.88;94858.66;4177397;28;19921;-72
2023/01/14 06:10:55;;;;;;;;;;;;;;;4.58;70.41;94854.31;4173541;28;19971;-72
2023/01/14 06:13:02;;;;;;;;;;;;;;;4.62;70.46;94858.28;4175435;28;19920;-71
2023/01/14 06:15:04;;;;;;;;;;;;;;;4.60;69.99;94859.38;4160380;28;19963;-71
2023/01/14 06:17:09;;;;;;;;;;;;;;;4.57;70.36;94857.03;4168394;28;19925;-72
2023/01/14 06:19:11;;;;;;;;;;;;;;;4.53;69.79;94858.19;4177547;28;19921;-72
2023/01/14 06:21:14;;;;;;;;;;;;;;;4.50;70.31;94851.47;4151741;28;19921;-73
2023/01/14 06:23:16;;;;;;;;;;;;;;;4.45;70.42;94856.19;4149012;28;19997;-71
2023/01/14 06:25:17;;;;;;;;;;;;;;;4.49;69.99;94850.63;4174373;28;19921;-72
2023/01/14 06:27:19;;;;;;;;;;;;;;;4.54;70.47;94852.06;4168430;28;19925;-71
2023/01/14 06:29:20;;;;;;;;;;;;;;;4.56;70.28;94852.75;4171786;28;20012;-73
2023/01/14 06:31:22;;;;;;;;;;;;;;;4.59;69.52;94853.34;4172348;28;19924;-72
2023/01/14 06:33:24;;;;;;;;;;;;;;;4.65;69.18;94844.28;4176076;28;19991;-72
2023/01/14 06:35:25;;;;;;;;;;;;;;;4.70;68.90;94855.13;4159305;28;19996;-75
2023/01/14 06:37:27;;;;;;;;;;;;;;;4.74;68.76;94858.31;4170883;28;20360;-75
2023/01/14 06:39:28;;;;;;;;;;;;;;;4.75;69.31;94855.56;4173696;28;20221;-72
2023/01/14 06:41:30;;;;;;;;;;;;;;;4.83;68.52;94857.59;4171481;28;19940;-72
2023/01/14 06:43:32;;;;;;;;;;;;;;;4.87;68.80;94859.81;4177605;28;19920;-71
2023/01/14 06:45:33;;;;;;;;;;;;;;;4.86;68.26;94863.38;4171538;28;19920;-74
2023/01/14 06:47:35;;;;;;;;;;;;;;;4.76;69.20;94872.00;4164452;28;19990;-71
2023/01/14 06:49:37;;;;;;;;;;;;;;;4.72;68.88;94866.22;4176768;28;19936;-72
2023/01/14 06:51:39;;;;;;;;;;;;;;;4.45;68.71;94870.00;4176681;28;19921;-73
2023/01/14 06:53:41;;;;;;;;;;;;;;;3.82;70.59;94876.50;4177290;28;19931;-70
2023/01/14 06:55:42;;;;;;;;;;;;;;;3.35;72.36;94878.19;4175603;28;20245;-71
2023/01/14 06:57:45;;;;;;;;;;;;;;;3.42;73.38;94877.66;4177037;28;20360;-72
2023/01/14 06:59:46;;;;;;;;;;;;;;;3.58;73.19;94869.59;4169932;28;19931;-73
2023/01/14 07:01:48;;;;;;;;;;;;;;;3.80;72.72;94876.59;4142971;28;19968;-72
2023/01/14 07:03:50;;;;;;;;;;;;;;;4.02;72.13;94880.19;4173572;28;20016;-71
2023/01/14 07:05:52;;;;;;;;;;;;;;;4.24;71.56;94872.47;4147990;28;20459;-73
2023/01/14 07:07:54;;;;;;;;;;;;;;;4.43;70.92;94873.63;4160681;28;19951;-72
2023/01/14 07:09:55;;;;;;;;;;;;;;;4.57;69.78;94875.19;4147087;28;20372;-71
2023/01/14 07:11:57;;;;;;;;;;;;;;;4.65;69.97;94872.81;4176840;28;19925;-73
2023/01/14 07:13:59;;;;;;;;;;;;;;;4.77;69.36;94876.22;4173309;28;19929;-73
2023/01/14 07:16:00;;;;;;;;;;;;;;;4.65;69.18;94880.63;4163938;28;20180;-73
2023/01/14 07:18:02;;;;;;;;;;;;;;;4.66;69.76;94883.06;4169023;28;19971;-74
2023/01/14 07:20:05;;;;;;;;;;;;;;;4.74;70.08;94873.88;4163485;28;19928;-73
2023/01/14 07:22:06;;;;;;;;;;;;;;;4.79;69.96;94880.34;4176035;28;19948;-73
2023/01/14 07:24:08;;;;;;;;;;;;;;;4.77;69.18;94881.41;4168807;28;20420;-72
2023/01/14 07:26:09;;;;;;;;;;;;;;;4.78;69.23;94889.09;4171408;28;19921;-74
2023/01/14 07:28:11;;;;;;;;;;;;;;;4.82;69.47;94890.50;4176214;28;19955;-73
2023/01/14 07:30:13;;;;;;;;;;;;;;;4.81;70.02;94891.44;4163664;28;20327;-72
2023/01/14 07:32:14;;;;;;;;;;;;;;;4.76;70.16;94893.56;4165616;28;19929;-72
2023/01/14 07:34:16;;;;;;;;;;;;;;;4.80;70.39;94896.78;4146712;28;20028;-72
2023/01/14 07:36:17;;;;;;;;;;;;;;;4.86;70.38;94897.13;4145502;28;19925;-71
2023/01/14 07:38:20;;;;;;;;;;;;;;;5.00;69.85;94896.03;4158708;28;19987;-72
2023/01/14 07:40:22;;;;;;;;;;;;;;;5.11;69.77;94896.00;4175994;28;19920;-73
2023/01/14 07:42:23;;;;;;;;;;;;;;;5.19;69.39;94903.19;4175297;28;19920;-71
2023/01/14 07:44:25;;;;;;;;;;;;;;;5.16;68.78;94903.44;4174336;28;20333;-71
2023/01/14 07:46:26;;;;;;;;;;;;;;;5.03;69.79;94900.16;4166914;28;19937;-74
2023/01/14 07:48:29;;;;;;;;;;;;;;;4.99;70.13;94893.53;4176411;28;19978;-73
2023/01/14 07:50:30;;;;;;;;;;;;;;;5.02;70.14;94896.72;4169884;28;20291;-73
2023/01/14 07:52:32;;;;;;;;;;;;;;;5.16;69.69;94900.81;4129453;28;19922;-73
2023/01/14 07:54:33;;;;;;;;;;;;;;;5.25;69.52;94899.31;4175672;28;19971;-75
2023/01/14 07:56:35;;;;;;;;;;;;;;;5.39;69.15;94906.00;4154883;28;19925;-72
2023/01/14 07:58:36;;;;;;;;;;;;;;;5.52;69.06;94904.88;4168587;28;20310;-75
2023/01/14 08:00:38;;;;;;;;;;;;;;;5.64;68.79;94904.84;4166756;28;19999;-73
2023/01/14 08:02:40;;;;;;;;;;;;;;;5.77;68.58;94897.72;4166517;28;20272;-73
2023/01/14 08:04:42;;;;;;;;;;;;;;;5.81;67.80;94895.66;4171773;28;20433;-75
2023/01/14 08:06:43;;;;;;;;;;;;;;;5.81;67.55;94895.66;4163604;28;20384;-75
2023/01/14 08:08:45;;;;;;;;;;;;;;;5.81;67.70;94896.50;4173835;28;19998;-74
2023/01/14 08:10:46;;;;;;;;;;;;;;;5.73;67.62;94899.72;4175650;28;20437;-72
2023/01/14 08:12:49;;;;;;;;;;;;;;;5.51;68.13;94910.22;4171064;28;19929;-75
2023/01/14 08:14:51;;;;;;;;;;;;;;;5.33;68.56;94915.94;4171374;28;20410;-72
2023/01/14 08:16:53;;;;;;;;;;;;;;;5.27;69.12;94910.38;4172833;28;19920;-72
2023/01/14 08:18:54;;;;;;;;;;;;;;;5.29;69.56;94917.13;4167493;28;19925;-72
2023/01/14 08:20:56;;;;;;;;;;;;;;;5.47;69.20;94917.41;4167095;28;20402;-74
2023/01/14 08:22:58;;;;;;;;;;;;;;;5.67;69.58;94910.59;4166552;28;19932;-73
2023/01/14 08:25:00;;;;;;;;;;;;;;;5.85;68.59;94915.25;4174392;28;20011;-73
2023/01/14 08:27:06;;;;;;;;;;;;;;;5.96;67.76;94912.66;4176425;28;19974;-74
2023/01/14 08:29:07;;;;;;;;;;;;;;;6.05;67.54;94919.72;4169928;28;19924;-72
2023/01/14 08:31:14;;;;;;;;;;;;;;;6.21;67.59;94918.44;4170419;28;20063;-73
2023/01/14 08:33:16;;;;;;;;;;;;;;;6.37;66.76;94916.22;4169303;28;19968;-72
2023/01/14 08:35:17;;;;;;;;;;;;;;;6.46;65.82;94920.66;4170316;28;20014;-73
2023/01/14 08:37:19;;;;;;;;;;;;;;;6.52;66.16;94919.31;4166334;28;19925;-71
2023/01/14 08:39:20;;;;;;;;;;;;;;;6.55;65.83;94914.66;4166539;28;19921;-73
2023/01/14 08:41:23;;;;;;;;;;;;;;;6.57;65.50;94920.56;4171670;28;20010;-74
2023/01/14 08:43:24;;;;;;;;;;;;;;;6.60;65.91;94940.31;4158660;28;19925;-73
2023/01/14 08:45:26;;;;;;;;;;;;;;;6.64;65.60;94931.28;4173696;28;19929;-74
2023/01/14 08:47:28;;;;;;;;;;;;;;;6.72;65.83;94928.88;4159988;28;19956;-74
2023/01/14 08:49:31;;;;;;;;;;;;;;;6.82;65.58;94926.31;4172350;28;19921;-71
2023/01/14 08:51:33;;;;;;;;;;;;;;;6.94;65.30;94935.66;4159318;28;20288;-72
2023/01/14 08:53:35;;;;;;;;;;;;;;;7.07;65.11;94926.81;4159355;28;19987;-73
2023/01/14 08:55:38;;;;;;;;;;;;;;;7.13;64.61;94931.50;4160215;28;20223;-76
2023/01/14 08:57:40;;;;;;;;;;;;;;;7.19;64.34;94917.94;4178784;28;19931;-72
2023/01/14 08:59:41;;;;;;;;;;;;;;;7.18;63.32;94924.94;4161811;28;20060;-70
2023/01/14 09:01:43;;;;;;;;;;;;;;;7.24;63.68;94931.38;4179558;28;20059;-74
2023/01/14 09:03:57;;;;;;;;;;;;;;;7.28;63.24;94916.31;4178868;28;19925;-74
2023/01/14 09:05:59;;;;;;;;;;;;;;;7.32;63.24;94915.91;4178974;28;20012;-73
2023/01/14 09:17:21;;;;;;;;;;;;;;;7.24;62.75;94900.13;4178551;28;19920;-74
2023/01/14 09:19:23;;;;;;;;;;;;;;;7.16;62.91;94907.78;4173770;28;19932;-73
2023/01/14 09:21:24;;;;;;;;;;;;;;;7.15;63.06;94901.75;4175533;28;20280;-73
2023/01/14 09:23:26;;;;;;;;;;;;;;;7.19;63.25;94902.31;4161064;28;20309;-72
2023/01/14 09:25:27;;;;;;;;;;;;;;;7.22;62.97;94899.44;4178059;28;19983;-73
2023/01/14 09:27:31;;;;;;;;;;;;;;;7.29;63.06;94902.31;4177939;28;19994;-73
2023/01/14 09:29:32;;;;;;;;;;;;;;;7.30;62.58;94899.59;4178915;28;20020;-73
2023/01/14 09:31:34;;;;;;;;;;;;;;;7.13;62.21;94892.41;4167295;28;20075;-72
2023/01/14 09:33:35;;;;;;;;;;;;;;;6.82;62.93;94902.03;4160920;28;20044;-73
2023/01/14 09:35:37;;;;;;;;;;;;;;;6.49;64.08;94899.56;4177948;28;19931;-76
2023/01/14 09:37:38;;;;;;;;;;;;;;;6.30;64.80;94902.06;4159579;28;19921;-72
2023/01/14 09:39:40;;;;;;;;;;;;;;;6.36;65.07;94898.94;4159990;28;19925;-73
2023/01/14 09:41:49;;;;;;;;;;;;;;;6.49;64.97;94891.75;4175251;28;19974;-73
2023/01/14 09:43:52;;;;;;;;;;;;;;;6.47;64.70;94890.25;4178588;28;19920;-76
2023/01/14 09:45:59;;;;;;;;;;;;;;;6.36;64.17;94885.94;4161246;28;19921;-74
2023/01/14 09:48:04;;;;;;;;;;;;;;;6.32;64.78;94877.59;4175184;28;19983;-73
2023/01/14 09:50:07;;;;;;;;;;;;;;;6.38;64.80;94884.03;4160006;28;19928;-71
2023/01/14 09:52:18;;;;;;;;;;;;;;;6.20;64.89;94888.19;4177314;28;20252;-73
2023/01/14 09:54:23;;;;;;;;;;;;;;;6.19;65.22;94889.13;4174141;28;19921;-74
2023/01/14 09:56:25;;;;;;;;;;;;;;;6.20;65.87;94886.41;4174372;28;19928;-73
2023/01/14 09:58:29;;;;;;;;;;;;;;;6.29;65.58;94884.81;4161028;28;20024;-73
2023/01/14 10:00:39;;;;;;;;;;;;;;;6.38;65.20;94889.22;4178882;28;19932;-72
2023/01/14 10:02:43;;;;;;;;;;;;;;;6.42;64.65;94888.03;4160702;28;20388;-73
2023/01/14 10:04:45;;;;;;;;;;;;;;;6.55;64.57;94880.81;4173951;28;20272;-73
2023/01/14 10:06:47;;;;;;;;;;;;;;;6.64;63.87;94887.03;4173357;28;19925;-75
2023/01/14 10:08:53;;;;;;;;;;;;;;;6.73;63.20;94878.47;4152669;28;20408;-71
2023/01/14 10:10:55;;;;;;;;;;;;;;;6.87;62.66;94882.47;4169602;28;20020;-70
2023/01/14 10:12:57;;;;;;;;;;;;;;;6.95;62.92;94880.03;4161297;28;20498;-75
2023/01/14 10:15:01;;;;;;;;;;;;;;;6.97;61.99;94874.69;4160318;28;19932;-72
2023/01/14 10:17:04;;;;;;;;;;;;;;;6.98;62.86;94877.16;4152788;28;19925;-73
2023/01/14 10:19:16;;;;;;;;;;;;;;;7.11;62.51;94876.09;4159584;28;19921;-73
2023/01/14 10:21:31;;;;;;;;;;;;;;;7.23;61.38;94869.81;4170596;28;19951;-74
2023/01/14 10:23:36;;;;;;;;;;;;;;;7.37;61.46;94869.41;4151278;28;19925;-72
2023/01/14 10:25:38;;;;;;;;;;;;;;;7.48;60.29;94868.47;4159358;28;20399;-71
2023/01/14 10:27:39;;;;;;;;;;;;;;;7.39;60.63;94864.91;4162507;28;19920;-74
2023/01/14 10:29:41;;;;;;;;;;;;;;;7.52;60.18;94869.03;4150184;28;19921;-73
2023/01/14 10:31:45;;;;;;;;;;;;;;;7.65;60.01;94866.16;4168488;28;20363;-75
2023/01/14 10:33:46;;;;;;;;;;;;;;;7.75;59.92;94864.38;4139876;28;19928;-73
2023/01/14 10:35:57;;;;;;;;;;;;;;;7.87;60.04;94862.44;4162079;28;19937;-74
2023/01/14 10:37:59;;;;;;;;;;;;;;;7.86;59.26;94850.38;4150903;28;19928;-72
2023/01/14 10:40:01;;;;;;;;;;;;;;;7.90;59.13;94856.97;4175798;28;19928;-70
2023/01/14 10:42:04;;;;;;;;;;;;;;;7.95;58.95;94860.78;4131518;28;20536;-73
2023/01/14 10:44:05;;;;;;;;;;;;;;;7.77;60.33;94858.06;4178028;28;19960;-74
2023/01/14 10:46:13;;;;;;;;;;;;;;;7.43;60.99;94864.63;4178115;28;19920;-71
2023/01/14 10:48:17;;;;;;;;;;;;;;;6.86;63.17;94859.16;4146625;28;19921;-74
2023/01/14 10:50:26;;;;;;;;;;;;;;;6.89;63.68;94851.91;4152112;28;20009;-71
2023/01/14 10:52:29;;;;;;;;;;;;;;;6.84;63.87;94848.91;4165842;28;19929;-71
2023/01/14 10:54:32;;;;;;;;;;;;;;;6.87;63.49;94845.19;4165974;28;20054;-73
2023/01/14 10:56:34;;;;;;;;;;;;;;;7.01;63.62;94849.19;4168540;28;19925;-73
2023/01/14 10:58:49;;;;;;;;;;;;;;;6.81;63.77;94843.13;4152880;28;19925;-74
2023/01/14 11:00:51;;;;;;;;;;;;;;;6.73;64.01;94846.38;4151517;28;20004;-73
2023/01/14 11:02:52;;;;;;;;;;;;;;;6.70;64.55;94839.66;4163879;28;20348;-71
2023/01/14 11:04:54;;;;;;;;;;;;;;;6.66;63.68;94840.06;4172015;28;19929;-73
2023/01/14 11:06:56;;;;;;;;;;;;;;;6.49;64.51;94833.69;4149509;28;19922;-73
2023/01/14 11:08:57;;;;;;;;;;;;;;;6.14;65.50;94829.69;4158723;28;20411;-74
2023/01/14 11:10:59;;;;;;;;;;;;;;;6.15;66.13;94841.72;4163105;28;20040;-73
2023/01/14 11:13:20;;;;;;;;;;;;;;;6.31;66.05;94834.28;4174238;28;19921;-74
2023/01/14 11:15:35;;;;;;;;;;;;;;;6.62;64.71;94833.44;4172003;28;20388;-72